createdAt,value
2019-04-07T00:01:58.674Z,101048.56
2019-04-07T00:04:30.646Z,101052.78
2019-04-07T00:07:02.305Z,101053.30
2019-04-07T00:09:34.368Z,101053.30
2019-04-07T00:12:06.127Z,101059.41
2019-04-07T00:14:37.993Z,101055.98
2019-04-07T00:17:09.454Z,101051.18
2019-04-07T00:19:40.893Z,101051.18
2019-04-07T00:22:12.733Z,101050.63
2019-04-07T00:24:44.801Z,101053.48
2019-04-07T00:27:17.809Z,101051.74
2019-04-07T00:29:49.475Z,101048.84
2019-04-07T00:32:21.161Z,101048.28
2019-04-07T00:34:53.012Z,101047.98
2019-04-07T00:37:24.529Z,101047.98
2019-04-07T00:39:56.678Z,101042.72
2019-04-07T00:42:28.216Z,101042.47
2019-04-07T00:44:59.955Z,101042.55
2019-04-07T00:47:31.338Z,101043.14
2019-04-07T00:50:03.014Z,101034.16
2019-04-07T00:52:34.928Z,101037.02
2019-04-07T00:55:07.731Z,101036.50
2019-04-07T00:57:39.294Z,101035.43
2019-04-07T01:00:12.977Z,101031.20
2019-04-07T01:02:44.420Z,101025.12
2019-04-07T01:05:15.899Z,101025.11
2019-04-07T01:07:47.553Z,101025.11
2019-04-07T01:10:19.627Z,101046.69
2019-04-07T01:12:52.175Z,101037.32
2019-04-07T01:15:24.106Z,101025.91
2019-04-07T01:17:55.524Z,101020.78
2019-04-07T01:20:26.968Z,101020.78
2019-04-07T01:22:58.360Z,101034.38
2019-04-07T01:25:30.214Z,101025.73
2019-04-07T01:28:02.075Z,101026.19
2019-04-07T01:30:33.708Z,101023.84
2019-04-07T01:33:05.388Z,101024.45
2019-04-07T01:35:46.233Z,101021.07
2019-04-07T01:38:10.405Z,101011.15
2019-04-07T01:40:43.557Z,101011.15
2019-04-07T01:43:17.751Z,101022.12
2019-04-07T01:46:01.313Z,101025.19
2019-04-07T01:48:54.355Z,101035.16
2019-04-07T01:51:30.212Z,101017.42
2019-04-07T01:54:03.423Z,101020.96
2019-04-07T01:56:49.691Z,101025.53
2019-04-07T01:59:28.888Z,101023.65
2019-04-07T02:02:18.968Z,101023.84
2019-04-07T02:04:58.899Z,101025.16
2019-04-07T02:07:47.377Z,101024.20
2019-04-07T02:10:20.942Z,101017.78
2019-04-07T02:12:54.176Z,101027.15
2019-04-07T02:15:29.899Z,101022.18
2019-04-07T02:18:20.073Z,101023.13
2019-04-07T02:21:13.011Z,101026.90
2019-04-07T02:23:46.199Z,101025.00
2019-04-07T02:26:20.384Z,101022.83
2019-04-07T02:28:57.192Z,101021.42
2019-04-07T02:31:40.121Z,101017.00
2019-04-07T02:34:15.577Z,101019.66
2019-04-07T02:37:04.697Z,101023.05
2019-04-07T02:39:38.682Z,101016.80
2019-04-07T02:42:17.857Z,101022.90
2019-04-07T02:45:07.618Z,101025.67
2019-04-07T02:47:56.471Z,101012.59
2019-04-07T02:50:37.183Z,101024.66
2019-04-07T02:53:13.474Z,101016.30
2019-04-07T02:55:47.091Z,101016.55
2019-04-07T02:58:23.986Z,101022.50
2019-04-07T03:00:57.686Z,101020.33
2019-04-07T03:03:31.201Z,101015.54
2019-04-07T03:06:07.791Z,101014.09
2019-04-07T03:08:52.940Z,101016.09
2019-04-07T03:11:29.206Z,101022.06
2019-04-07T03:14:02.551Z,101020.94
2019-04-07T03:16:44.823Z,101022.62
2019-04-07T03:19:17.967Z,101022.79
2019-04-07T03:21:54.263Z,101016.02
2019-04-07T03:24:36.955Z,101019.02
2019-04-07T03:27:13.500Z,101014.81
2019-04-07T03:29:59.006Z,101019.90
2019-04-07T03:32:50.414Z,101020.23
2019-04-07T03:35:30.536Z,101026.52
2019-04-07T03:38:19.090Z,101033.44
2019-04-07T03:41:01.086Z,101039.45
2019-04-07T03:43:34.606Z,101040.70
2019-04-07T03:46:14.295Z,101037.52
2019-04-07T03:48:50.886Z,101041.30
2019-04-07T03:51:40.877Z,101040.06
2019-04-07T03:54:18.377Z,101037.59
2019-04-07T03:56:54.469Z,101038.45
2019-04-07T03:59:30.605Z,101040.21
2019-04-07T04:02:15.888Z,101047.22
2019-04-07T04:04:51.585Z,101042.36
2019-04-07T04:07:31.491Z,101044.95
2019-04-07T04:10:03.218Z,101051.71
2019-04-07T04:12:42.285Z,101055.04
2019-04-07T04:15:22.239Z,101053.28
2019-04-07T04:17:55.308Z,101053.56
2019-04-07T04:20:26.937Z,101049.16
2019-04-07T04:22:58.641Z,101049.88
2019-04-07T04:25:32.068Z,101056.00
2019-04-07T04:28:04.953Z,101056.00
2019-04-07T04:30:37.126Z,101047.53
2019-04-07T04:33:08.994Z,101050.87
2019-04-07T04:35:40.953Z,101054.14
2019-04-07T04:38:12.634Z,101053.66
2019-04-07T04:40:44.150Z,101048.42
2019-04-07T04:43:15.749Z,101057.37
2019-04-07T04:45:48.308Z,101056.81
2019-04-07T04:48:19.886Z,101056.81
2019-04-07T04:50:52.298Z,101062.21
2019-04-07T04:53:24.251Z,101052.48
2019-04-07T04:55:55.754Z,101055.48
2019-04-07T04:58:28.828Z,101055.45
2019-04-07T05:01:00.908Z,101054.55
2019-04-07T05:03:32.829Z,101062.45
2019-04-07T05:06:04.576Z,101062.90
2019-04-07T05:08:36.015Z,101054.56
2019-04-07T05:11:07.933Z,101058.55
2019-04-07T05:13:39.524Z,101063.53
2019-04-07T05:16:10.965Z,101058.56
2019-04-07T05:18:42.741Z,101060.25
2019-04-07T05:21:14.169Z,101061.11
2019-04-07T05:23:45.946Z,101058.04
2019-04-07T05:26:17.593Z,101057.78
2019-04-07T05:28:49.223Z,101055.82
2019-04-07T05:31:21.071Z,101051.78
2019-04-07T05:33:52.590Z,101059.72
2019-04-07T05:36:25.158Z,101060.70
2019-04-07T05:38:57.449Z,101066.55
2019-04-07T05:41:29.607Z,101057.15
2019-04-07T05:44:01.333Z,101068.03
2019-04-07T05:46:33.550Z,101073.61
2019-04-07T05:49:05.695Z,101076.81
2019-04-07T05:51:37.132Z,101082.04
2019-04-07T05:54:09.229Z,101077.81
2019-04-07T05:56:41.296Z,101082.09
2019-04-07T05:59:14.000Z,101081.41
2019-04-07T06:01:46.725Z,101079.59
2019-04-07T06:04:19.532Z,101080.32
2019-04-07T06:06:54.475Z,101072.14
2019-04-07T06:09:25.130Z,101082.88
2019-04-07T06:11:56.721Z,101083.66
2019-04-07T06:14:28.080Z,101079.95
2019-04-07T06:17:00.000Z,101085.72
2019-04-07T06:19:31.632Z,101076.49
2019-04-07T06:22:03.445Z,101080.11
2019-04-07T06:24:35.147Z,101078.59
2019-04-07T06:27:06.845Z,101070.34
2019-04-07T06:29:38.984Z,101075.13
2019-04-07T06:32:11.214Z,101070.47
2019-04-07T06:34:44.314Z,101072.14
2019-04-07T06:37:15.991Z,101074.55
2019-04-07T06:39:50.696Z,101074.47
2019-04-07T06:42:20.878Z,101083.46
2019-04-07T06:44:53.352Z,101073.92
2019-04-07T06:47:31.315Z,101077.82
2019-04-07T06:50:19.104Z,101076.17
2019-04-07T06:52:58.890Z,101081.20
2019-04-07T06:55:48.640Z,101074.88
2019-04-07T06:58:40.786Z,101076.68
2019-04-07T07:01:29.686Z,101071.19
2019-04-07T07:04:19.119Z,101067.76
2019-04-07T07:07:02.317Z,101059.91
2019-04-07T07:09:52.084Z,101059.11
2019-04-07T07:12:32.358Z,101052.11
2019-04-07T07:15:03.138Z,101052.95
2019-04-07T07:17:40.188Z,101044.57
2019-04-07T07:20:19.979Z,101043.15
2019-04-07T07:23:05.881Z,101054.41
2019-04-07T07:25:37.668Z,101052.09
2019-04-07T07:28:10.745Z,101046.52
2019-04-07T07:30:42.708Z,101053.29
2019-04-07T07:33:14.845Z,101048.54
2019-04-07T07:35:49.184Z,101052.72
2019-04-07T07:38:21.423Z,101039.22
2019-04-07T07:40:52.903Z,101036.02
2019-04-07T07:43:27.944Z,101040.84
2019-04-07T07:45:57.660Z,101034.33
2019-04-07T07:48:29.125Z,101038.70
2019-04-07T07:51:01.233Z,101044.48
2019-04-07T07:53:32.986Z,101046.44
2019-04-07T07:56:08.336Z,101043.57
2019-04-07T07:58:37.578Z,101040.92
2019-04-07T08:01:11.279Z,101041.88
2019-04-07T08:03:42.532Z,101049.19
2019-04-07T08:06:13.999Z,101037.64
2019-04-07T08:08:47.576Z,101050.30
2019-04-07T08:11:18.826Z,101042.12
2019-04-07T08:13:50.354Z,101048.30
2019-04-07T08:16:21.862Z,101048.30
2019-04-07T08:18:53.269Z,101044.08
2019-04-07T08:21:24.770Z,101028.16
2019-04-07T08:23:56.800Z,101033.77
2019-04-07T08:26:28.911Z,101036.53
2019-04-07T08:29:01.213Z,101024.63
2019-04-07T08:31:33.792Z,101021.98
2019-04-07T08:34:05.391Z,101016.13
2019-04-07T08:36:36.844Z,101016.34
2019-04-07T08:39:19.389Z,101019.53
2019-04-07T08:41:42.774Z,101017.83
2019-04-07T08:44:15.057Z,101010.98
2019-04-07T08:46:47.528Z,101009.63
2019-04-07T08:49:19.206Z,101010.72
2019-04-07T08:51:52.165Z,100999.20
2019-04-07T08:54:23.633Z,101012.83
2019-04-07T08:56:56.760Z,101001.04
2019-04-07T08:59:28.328Z,100997.26
2019-04-07T09:02:00.709Z,100993.81
2019-04-07T09:04:32.184Z,101001.84
2019-04-07T09:07:04.394Z,100999.13
2019-04-07T09:09:40.371Z,100994.97
2019-04-07T09:12:10.363Z,100999.34
2019-04-07T09:14:42.077Z,100982.87
2019-04-07T09:17:38.564Z,100979.77
2019-04-07T09:20:10.828Z,100980.23
2019-04-07T09:23:00.575Z,100975.67
2019-04-07T09:25:37.841Z,100973.73
2019-04-07T09:28:15.675Z,100972.25
2019-04-07T09:31:08.447Z,100969.58
2019-04-07T09:33:53.998Z,100968.83
2019-04-07T09:36:37.833Z,100972.23
2019-04-07T09:39:31.433Z,100976.79
2019-04-07T09:42:14.886Z,100978.16
2019-04-07T09:45:02.041Z,100968.17
2019-04-07T09:47:51.467Z,100970.89
2019-04-07T09:50:27.842Z,100961.96
2019-04-07T09:53:02.090Z,100976.56
2019-04-07T09:55:47.356Z,100965.73
2019-04-07T09:58:39.203Z,100955.58
2019-04-07T10:01:18.930Z,100957.03
2019-04-07T10:03:51.961Z,100956.92
2019-04-07T10:06:39.110Z,100952.41
2019-04-07T10:09:28.523Z,100941.84
2019-04-07T10:12:01.698Z,100937.48
2019-04-07T10:14:37.664Z,100930.61
2019-04-07T10:17:16.747Z,100933.25
2019-04-07T10:19:52.801Z,100929.73
2019-04-07T10:22:32.106Z,100917.78
2019-04-07T10:25:06.130Z,100924.03
2019-04-07T10:27:42.911Z,100913.77
2019-04-07T10:30:16.301Z,100929.50
2019-04-07T10:33:04.767Z,100923.14
2019-04-07T10:35:49.969Z,100920.50
2019-04-07T10:38:32.786Z,100920.67
2019-04-07T10:41:06.724Z,100906.50
2019-04-07T10:43:56.178Z,100904.20
2019-04-07T10:46:46.050Z,100913.66
2019-04-07T10:49:31.284Z,100910.73
2019-04-07T10:52:07.355Z,100897.75
2019-04-07T10:54:43.817Z,100893.66
2019-04-07T10:57:26.692Z,100896.36
2019-04-07T11:00:09.074Z,100897.35
2019-04-07T11:02:58.564Z,100896.30
2019-04-07T11:05:41.184Z,100903.91
2019-04-07T11:08:32.311Z,100894.69
2019-04-07T11:11:22.259Z,100894.37
2019-04-07T11:14:05.818Z,100886.69
2019-04-07T11:16:38.892Z,100902.77
2019-04-07T11:19:24.311Z,100892.31
2019-04-07T11:22:00.836Z,100882.69
2019-04-07T11:24:46.904Z,100885.73
2019-04-07T11:27:22.990Z,100874.28
2019-04-07T11:29:59.012Z,100878.66
2019-04-07T11:32:41.491Z,100869.72
2019-04-07T11:35:14.865Z,100865.14
2019-04-07T11:37:48.482Z,100857.80
2019-04-07T11:40:45.914Z,100856.12
2019-04-07T11:43:31.491Z,100862.90
2019-04-07T11:46:07.463Z,100841.56
2019-04-07T11:48:43.439Z,100836.92
2019-04-07T11:51:26.812Z,100835.59
2019-04-07T11:54:11.936Z,100837.16
2019-04-07T11:56:48.015Z,100830.31
2019-04-07T11:59:39.478Z,100829.95
2019-04-07T12:02:18.657Z,100830.78
2019-04-07T12:04:53.491Z,100823.30
2019-04-07T12:07:41.670Z,100821.73
2019-04-07T12:10:21.390Z,100822.55
2019-04-07T12:13:04.736Z,100820.92
2019-04-07T12:15:45.184Z,100819.08
2019-04-07T12:18:24.190Z,100816.75
2019-04-07T12:21:02.489Z,100809.58
2019-04-07T12:23:47.088Z,100812.03
2019-04-07T12:26:20.419Z,100810.20
2019-04-07T12:28:53.960Z,100801.59
2019-04-07T12:31:46.643Z,100805.77
2019-04-07T12:34:36.355Z,100805.44
2019-04-07T12:37:28.452Z,100796.93
2019-04-07T12:40:13.610Z,100795.83
2019-04-07T12:42:59.235Z,100788.56
2019-04-07T12:45:49.351Z,100789.95
2019-04-07T12:48:23.109Z,100789.59
2019-04-07T12:51:03.056Z,100783.93
2019-04-07T12:53:39.088Z,100776.19
2019-04-07T12:56:12.219Z,100773.84
2019-04-07T12:58:47.537Z,100766.33
2019-04-07T13:01:33.914Z,100773.03
2019-04-07T13:04:16.669Z,100781.33
2019-04-07T13:06:58.870Z,100779.39
2019-04-07T13:09:49.145Z,100772.58
2019-04-07T13:12:24.768Z,100768.58
2019-04-07T13:14:57.203Z,100772.48
2019-04-07T13:17:47.318Z,100763.28
2019-04-07T13:20:29.580Z,100756.55
2019-04-07T13:23:06.004Z,100768.58
2019-04-07T13:25:40.723Z,100760.50
2019-04-07T13:28:14.223Z,100764.42
2019-04-07T13:30:47.325Z,100766.23
2019-04-07T13:33:29.133Z,100763.47
2019-04-07T13:36:01.754Z,100760.70
2019-04-07T13:38:47.176Z,100765.43
2019-04-07T13:41:37.240Z,100757.16
2019-04-07T13:44:04.904Z,100755.05
2019-04-07T13:46:42.294Z,100767.55
2019-04-07T13:49:32.242Z,100758.87
2019-04-07T13:52:23.068Z,100752.42
2019-04-07T13:55:11.960Z,100757.34
2019-04-07T13:57:48.349Z,100753.38
2019-04-07T14:00:27.956Z,100763.25
2019-04-07T14:03:16.684Z,100758.06
2019-04-07T14:05:56.083Z,100752.72
2019-04-07T14:08:45.949Z,100752.42
2019-04-07T14:11:36.041Z,100752.47
2019-04-07T14:14:15.721Z,100758.78
2019-04-07T14:16:51.843Z,100759.08
2019-04-07T14:19:34.366Z,100763.70
2019-04-07T14:22:07.461Z,100759.45
2019-04-07T14:24:41.456Z,100758.69
2019-04-07T14:27:31.008Z,100753.38
2019-04-07T14:30:10.060Z,100752.76
2019-04-07T14:32:45.331Z,100757.87
2019-04-07T14:35:26.938Z,100749.70
2019-04-07T14:38:03.713Z,100755.39
2019-04-07T14:40:43.516Z,100752.86
2019-04-07T14:43:19.601Z,100751.18
2019-04-07T14:45:52.758Z,100748.22
2019-04-07T14:48:40.936Z,100749.94
2019-04-07T14:51:26.534Z,100755.01
2019-04-07T14:54:11.809Z,100748.94
2019-04-07T14:57:01.024Z,100750.32
2019-04-07T14:59:34.052Z,100751.56
2019-04-07T15:02:06.275Z,100749.59
2019-04-07T15:04:43.043Z,100754.81
2019-04-07T15:07:16.241Z,100755.34
2019-04-07T15:09:55.805Z,100760.14
2019-04-07T15:12:30.277Z,100754.39
2019-04-07T15:15:04.785Z,100758.32
2019-04-07T15:17:36.967Z,100762.53
2019-04-07T15:20:11.676Z,100759.77
2019-04-07T15:22:44.786Z,100766.39
2019-04-07T15:25:16.174Z,100762.87
2019-04-07T15:27:48.060Z,100760.11
2019-04-07T15:30:20.284Z,100763.17
2019-04-07T15:32:51.863Z,100760.95
2019-04-07T15:35:24.367Z,100764.33
2019-04-07T15:37:57.016Z,100765.93
2019-04-07T15:40:30.832Z,100761.02
2019-04-07T15:43:04.703Z,100759.94
2019-04-07T15:45:36.517Z,100758.84
2019-04-07T15:48:08.877Z,100766.60
2019-04-07T15:50:40.555Z,100762.00
2019-04-07T15:53:14.388Z,100767.01
2019-04-07T15:55:53.464Z,100764.44
2019-04-07T15:58:20.501Z,100768.25
2019-04-07T16:00:52.130Z,100765.35
2019-04-07T16:03:23.727Z,100769.63
2019-04-07T16:05:55.587Z,100773.94
2019-04-07T16:08:29.532Z,100771.45
2019-04-07T16:11:01.776Z,100774.27
2019-04-07T16:13:34.587Z,100775.38
2019-04-07T16:16:06.134Z,100777.86
2019-04-07T16:18:40.221Z,100779.07
2019-04-07T16:21:11.275Z,100773.81
2019-04-07T16:23:47.932Z,100777.44
2019-04-07T16:26:17.568Z,100780.81
2019-04-07T16:28:49.645Z,100777.30
2019-04-07T16:31:24.216Z,100782.45
2019-04-07T16:33:56.090Z,100783.05
2019-04-07T16:36:28.754Z,100787.64
2019-04-07T16:39:02.293Z,100784.31
2019-04-07T16:41:34.998Z,100787.47
2019-04-07T16:44:09.281Z,100787.72
2019-04-07T16:46:39.786Z,100792.11
2019-04-07T16:49:13.492Z,100792.73
2019-04-07T16:51:44.851Z,100798.16
2019-04-07T16:54:16.546Z,100796.16
2019-04-07T16:56:50.826Z,100799.71
2019-04-07T16:59:22.023Z,100800.37
2019-04-07T17:01:53.719Z,100807.88
2019-04-07T17:04:26.818Z,100801.62
2019-04-07T17:07:03.428Z,100803.97
2019-04-07T17:09:34.421Z,100799.54
2019-04-07T17:12:09.510Z,100811.09
2019-04-07T17:14:39.499Z,100804.42
2019-04-07T17:17:13.163Z,100814.08
2019-04-07T17:19:44.464Z,100813.25
2019-04-07T17:22:17.315Z,100810.41
2019-04-07T17:24:49.936Z,100815.27
2019-04-07T17:27:21.548Z,100818.02
2019-04-07T17:29:55.339Z,100817.28
2019-04-07T17:32:27.431Z,100820.94
2019-04-07T17:34:59.728Z,100821.24
2019-04-07T17:37:31.960Z,100820.20
2019-04-07T17:40:17.947Z,100825.38
2019-04-07T17:42:52.701Z,100830.72
2019-04-07T17:45:43.125Z,100831.02
2019-04-07T17:48:17.084Z,100826.21
2019-04-07T17:51:08.418Z,100825.56
2019-04-07T17:53:47.866Z,100820.77
2019-04-07T17:56:20.996Z,100822.83
2019-04-07T17:58:57.086Z,100822.14
2019-04-07T18:01:46.643Z,100822.45
2019-04-07T18:04:38.945Z,100823.38
2019-04-07T18:07:16.388Z,100821.55
2019-04-07T18:09:57.300Z,100829.98
2019-04-07T18:12:47.900Z,100826.13
2019-04-07T18:15:17.942Z,100829.39
2019-04-07T18:18:03.987Z,100824.81
2019-04-07T18:20:54.076Z,100828.89
2019-04-07T18:23:44.338Z,100827.05
2019-04-07T18:26:18.590Z,100826.86
2019-04-07T18:28:54.925Z,100835.46
2019-04-07T18:31:27.430Z,100829.85
2019-04-07T18:34:02.754Z,100830.86
2019-04-07T18:36:36.994Z,100828.57
2019-04-07T18:39:27.578Z,100825.77
2019-04-07T18:42:06.621Z,100826.83
2019-04-07T18:44:40.986Z,100822.95
2019-04-07T18:47:14.943Z,100826.02
2019-04-07T18:50:06.466Z,100823.48
2019-04-07T18:52:47.750Z,100829.83
2019-04-07T18:55:26.116Z,100823.95
2019-04-07T18:58:22.924Z,100827.30
2019-04-07T19:01:12.085Z,100827.81
2019-04-07T19:03:45.405Z,100821.99
2019-04-07T19:06:21.551Z,100820.71
2019-04-07T19:09:04.759Z,100819.41
2019-04-07T19:11:42.855Z,100818.44
2019-04-07T19:14:42.415Z,100818.28
2019-04-07T19:17:17.200Z,100816.59
2019-04-07T19:20:08.934Z,100816.98
2019-04-07T19:22:58.379Z,100820.67
2019-04-07T19:25:50.014Z,100818.52
2019-04-07T19:28:42.332Z,100814.98
2019-04-07T19:31:18.042Z,100814.05
2019-04-07T19:33:50.537Z,100814.50
2019-04-07T19:36:32.953Z,100807.50
2019-04-07T19:39:26.309Z,100813.83
2019-04-07T19:42:04.601Z,100807.70
2019-04-07T19:44:46.165Z,100810.71
2019-04-07T19:47:34.869Z,100813.48
2019-04-07T19:50:17.012Z,100815.91
2019-04-07T19:52:56.509Z,100821.17
2019-04-07T19:55:36.667Z,100817.19
2019-04-07T19:58:09.900Z,100822.73
2019-04-07T20:01:01.592Z,100819.19
2019-04-07T20:03:36.990Z,100815.30
2019-04-07T20:06:23.077Z,100817.94
2019-04-07T20:08:58.814Z,100820.55
2019-04-07T20:11:37.486Z,100821.05
2019-04-07T20:14:18.365Z,100822.70
2019-04-07T20:17:06.795Z,100823.77
2019-04-07T20:19:52.012Z,100823.95
2019-04-07T20:22:35.064Z,100829.16
2019-04-07T20:25:17.524Z,100828.00
2019-04-07T20:27:57.449Z,100823.29
2019-04-07T20:30:50.088Z,100828.62
2019-04-07T20:33:32.386Z,100824.27
2019-04-07T20:36:22.134Z,100819.32
2019-04-07T20:39:07.261Z,100821.36
2019-04-07T20:41:48.052Z,100825.95
2019-04-07T20:44:25.844Z,100811.22
2019-04-07T20:47:13.365Z,100818.33
2019-04-07T20:49:49.069Z,100820.43
2019-04-07T20:52:26.181Z,100817.08
2019-04-07T20:55:07.153Z,100807.73
2019-04-07T20:57:56.427Z,100807.92
2019-04-07T21:00:55.812Z,100811.89
2019-04-07T21:03:36.087Z,100811.41
2019-04-07T21:06:27.554Z,100807.98
2019-04-07T21:09:01.478Z,100812.19
2019-04-07T21:11:37.656Z,100809.09
2019-04-07T21:14:15.547Z,100803.80
2019-04-07T21:16:51.085Z,100805.53
2019-04-07T21:19:25.591Z,100805.04
2019-04-07T21:22:06.774Z,100811.45
2019-04-07T21:24:56.503Z,100807.50
2019-04-07T21:27:33.726Z,100804.62
2019-04-07T21:30:20.782Z,100804.13
2019-04-07T21:33:00.341Z,100798.52
2019-04-07T21:35:35.372Z,100800.42
2019-04-07T21:38:20.889Z,100800.06
2019-04-07T21:40:55.504Z,100797.66
2019-04-07T21:43:37.702Z,100794.88
2019-04-07T21:46:29.202Z,100793.69
2019-04-07T21:49:18.369Z,100794.88
2019-04-07T21:51:57.348Z,100791.23
2019-04-07T21:54:37.286Z,100797.20
2019-04-07T21:57:07.978Z,100790.68
2019-04-07T21:59:43.933Z,100795.41
2019-04-07T22:02:19.874Z,100795.31
2019-04-07T22:04:59.443Z,100788.39
2019-04-07T22:07:33.538Z,100779.95
2019-04-07T22:10:13.709Z,100786.02
2019-04-07T22:12:45.366Z,100785.27
2019-04-07T22:15:17.219Z,100787.95
2019-04-07T22:17:48.794Z,100786.41
2019-04-07T22:20:21.395Z,100784.71
2019-04-07T22:22:54.337Z,100781.11
2019-04-07T22:25:31.656Z,100778.38
2019-04-07T22:28:03.941Z,100782.67
2019-04-07T22:30:39.237Z,100772.26
2019-04-07T22:33:09.165Z,100777.20
2019-04-07T22:35:42.753Z,100779.81
2019-04-07T22:38:14.994Z,100773.21
2019-04-07T22:40:46.649Z,100774.47
2019-04-07T22:43:20.041Z,100774.23
2019-04-07T22:46:00.074Z,100764.70
2019-04-07T22:48:27.226Z,100771.61
2019-04-07T22:50:59.019Z,100771.03
2019-04-07T22:53:33.007Z,100762.66
2019-04-07T22:56:07.359Z,100764.58
2019-04-07T22:58:38.133Z,100763.58
2019-04-07T23:01:09.834Z,100761.03
2019-04-07T23:03:41.398Z,100762.03
2019-04-07T23:06:12.863Z,100764.60
2019-04-07T23:08:45.314Z,100763.97
2019-04-07T23:11:17.958Z,100763.41
2019-04-07T23:13:49.527Z,100757.76
2019-04-07T23:16:22.114Z,100765.16
2019-04-07T23:18:54.189Z,100765.41
2019-04-07T23:21:26.737Z,100762.48
2019-04-07T23:23:58.358Z,100762.48
2019-04-07T23:26:29.969Z,100760.12
2019-04-07T23:29:01.471Z,100766.46
2019-04-07T23:31:34.625Z,100758.12
2019-04-07T23:34:06.420Z,100762.59
2019-04-07T23:36:38.265Z,100755.56
2019-04-07T23:39:09.992Z,100750.84
2019-04-07T23:41:41.907Z,100753.45
2019-04-07T23:44:13.426Z,100746.05
2019-04-07T23:46:44.903Z,100747.30
2019-04-07T23:49:16.542Z,100749.70
2019-04-07T23:51:47.939Z,100733.62
2019-04-07T23:54:19.496Z,100741.84
2019-04-07T23:56:51.843Z,100740.14
2019-04-07T23:59:23.370Z,100733.54
